Time;durP1;ratioP1;P1;durP2;ratioP2;P2;SDS_P1;SDS_P2;PMS_P1;PMS_P2;Temp;Humidity;BMP_temperature;BMP_pressure;BME280_temperature;BME280_humidity;BME280_pressure;Samples;Min_cycle;Max_cycle;Signal;HPM_P1;HPM_P2
2022/06/24 00:02:30;;;;;;;2.15;1.85;;;;;;;18.58;78.49;100443.44;20861461;28;20052;-76
2022/06/24 00:12:32;;;;;;;1.83;1.60;;;;;;;18.57;78.50;100417.47;20884640;28;20053;-76
2022/06/24 00:22:43;;;;;;;2.40;1.45;;;;;;;18.52;78.57;100403.56;20884393;28;20052;-76
2022/06/24 00:32:44;;;;;;;1.75;1.60;;;;;;;18.42;78.72;100371.31;20883814;28;20461;-76
2022/06/24 00:42:47;;;;;;;1.70;1.60;;;;;;;18.49;78.88;100358.06;20883223;28;20090;-76
2022/06/24 00:52:52;;;;;;;1.88;1.73;;;;;;;18.53;78.76;100352.22;20880704;28;20139;-76
2022/06/24 01:02:58;;;;;;;2.00;1.70;;;;;;;18.53;78.79;100327.09;20881941;28;20049;-75
2022/06/24 01:13:00;;;;;;;1.70;1.60;;;;;;;18.53;78.64;100319.00;20881920;28;20053;-76
2022/06/24 01:23:02;;;;;;;1.60;1.50;;;;;;;18.56;78.78;100313.34;20879803;28;20064;-75
2022/06/24 01:33:03;;;;;;;1.88;1.60;;;;;;;18.55;78.84;100306.22;20897188;28;20110;-76
2022/06/24 01:43:05;;;;;;;2.42;1.60;;;;;;;18.55;78.65;100292.75;20897691;28;20072;-76
2022/06/24 01:53:06;;;;;;;1.90;1.80;;;;;;;18.54;78.77;100289.22;20878403;28;20531;-76
2022/06/24 02:03:08;;;;;;;1.90;1.70;;;;;;;18.54;78.50;100264.97;20877243;28;20056;-76
2022/06/24 02:13:28;;;;;;;1.70;1.60;;;;;;;18.53;78.67;100249.78;20892114;28;20049;-76
2022/06/24 02:23:30;;;;;;;1.88;1.73;;;;;;;18.28;78.75;100194.84;20894102;28;20124;-75
2022/06/24 02:33:32;;;;;;;2.25;1.60;;;;;;;18.54;78.69;100232.63;20892820;28;20056;-76
2022/06/24 02:43:35;;;;;;;2.83;2.33;;;;;;;18.52;78.57;100237.31;20890237;28;20231;-76
2022/06/24 02:53:37;;;;;;;1.80;1.70;;;;;;;18.53;78.50;100222.84;20890122;28;20049;-76
2022/06/24 03:03:39;;;;;;;1.90;1.80;;;;;;;18.52;78.64;100229.22;20817539;28;20069;-76
2022/06/24 03:13:41;;;;;;;1.75;1.65;;;;;;;18.53;78.92;100244.41;20799961;28;20136;-76
2022/06/24 03:23:42;;;;;;;1.80;1.70;;;;;;;18.22;78.82;100190.91;20806647;28;20445;-76
2022/06/24 03:33:45;;;;;;;3.90;1.75;;;;;;;18.53;78.81;100230.06;20812328;28;20108;-76
2022/06/24 03:43:46;;;;;;;2.80;2.03;;;;;;;18.52;78.84;100198.72;20786389;28;20045;-76
2022/06/24 03:53:48;;;;;;;3.13;2.05;;;;;;;18.49;78.70;100199.91;20855617;28;20049;-77
2022/06/24 04:03:49;;;;;;;2.25;1.75;;;;;;;18.51;78.59;100186.25;20854801;28;20128;-77
2022/06/24 04:13:51;;;;;;;2.50;2.08;;;;;;;18.52;78.60;100199.56;20804848;28;20048;-77
2022/06/24 04:23:53;;;;;;;1.92;1.77;;;;;;;18.38;78.63;100192.91;20856045;28;20045;-77
2022/06/24 04:33:54;;;;;;;1.95;1.85;;;;;;;18.52;78.82;100196.03;20792040;28;20494;-76
2022/06/24 04:43:56;;;;;;;2.40;1.90;;;;;;;18.53;78.97;100201.28;20816740;28;20749;-77
2022/06/24 04:53:58;;;;;;;2.08;1.80;;;;;;;18.45;79.63;100189.56;20778166;28;20383;-77
2022/06/24 05:04:00;;;;;;;2.22;2.03;;;;;;;18.54;80.48;100229.06;20844227;28;20049;-77
2022/06/24 05:14:02;;;;;;;2.22;2.00;;;;;;;18.51;80.77;100175.47;20783783;28;20494;-77
2022/06/24 05:24:04;;;;;;;2.08;1.95;;;;;;;18.37;81.17;100126.53;20813943;28;20103;-77
2022/06/24 05:34:09;;;;;;;4.28;2.63;;;;;;;18.54;81.65;100165.22;20887550;28;20417;-77
2022/06/24 05:44:11;;;;;;;2.45;2.22;;;;;;;18.56;82.34;100248.66;20794936;28;20053;-77
2022/06/24 06:04:33;;;;;;;3.35;2.33;;;;;;;18.57;84.94;100246.78;20862973;28;20057;-76
2022/06/24 06:14:35;;;;;;;4.93;2.05;;;;;;;18.58;86.10;100260.13;20814475;28;20054;-77
2022/06/24 06:24:36;;;;;;;3.20;2.13;;;;;;;18.59;87.00;100280.69;20768333;28;20107;-77
2022/06/24 06:34:38;;;;;;;3.72;2.13;;;;;;;18.62;87.63;100312.72;20777747;28;20437;-77
2022/06/24 06:44:39;;;;;;;2.53;2.17;;;;;;;18.56;88.25;100329.50;20800161;28;20049;-77
2022/06/24 06:54:41;;;;;;;5.93;2.40;;;;;;;18.64;88.70;100291.84;20772713;28;20045;-77
2022/06/24 07:04:42;;;;;;;3.63;2.38;;;;;;;18.66;89.14;100267.41;20780681;28;21109;-78
2022/06/24 07:14:44;;;;;;;2.30;2.10;;;;;;;18.64;89.74;100261.31;20835021;28;20049;-79
2022/06/24 07:24:48;;;;;;;3.07;2.00;;;;;;;18.39;89.76;100263.84;20850659;28;20049;-77
2022/06/24 07:34:50;;;;;;;3.83;1.95;;;;;;;18.63;89.98;100302.75;20830796;28;20049;-76
2022/06/24 07:44:51;;;;;;;3.60;2.20;;;;;;;18.50;90.24;100262.72;20788271;28;20041;-77
2022/06/24 07:56:56;;;;;;;2.42;2.22;;;;;;;18.55;90.15;100198.41;20768675;28;20065;-76
2022/06/24 08:05:15;;;;;;;4.60;2.22;;;;;;;18.51;90.79;100205.13;20818183;28;20100;-76
2022/06/24 08:15:17;;;;;;;2.38;2.17;;;;;;;18.58;91.07;100203.50;20847930;28;20056;-76
2022/06/24 08:25:19;;;;;;;2.03;1.83;;;;;;;18.45;90.93;100211.13;20814291;28;20041;-76
2022/06/24 08:35:23;;;;;;;2.10;1.90;;;;;;;18.57;91.45;100219.81;20858791;28;20474;-76
2022/06/24 08:45:30;;;;;;;3.15;2.50;;;;;;;18.59;91.46;100237.53;20845732;28;20382;-75
2022/06/24 08:55:35;;;;;;;3.15;2.03;;;;;;;18.61;91.80;100229.28;20793216;28;20057;-75
2022/06/24 09:05:36;;;;;;;2.72;2.10;;;;;;;18.62;92.32;100237.22;20763081;28;20053;-76
2022/06/24 09:15:39;;;;;;;2.15;1.95;;;;;;;18.50;92.51;100228.53;20768917;28;20562;-76
2022/06/24 09:25:46;;;;;;;2.20;2.00;;;;;;;18.62;93.26;100249.84;20760945;28;20046;-76
2022/06/24 09:35:58;;;;;;;2.55;2.00;;;;;;;18.62;93.39;100248.00;20805499;28;20114;-76
2022/06/24 09:46:00;;;;;;;2.22;2.00;;;;;;;18.59;93.65;100240.25;20838245;28;20045;-76
2022/06/24 09:56:07;;;;;;;3.15;2.00;;;;;;;18.62;93.93;100274.09;20804872;28;20075;-76
2022/06/24 10:06:09;;;;;;;2.60;1.80;;;;;;;18.62;94.38;100301.06;20854338;28;20053;-76
2022/06/24 10:16:11;;;;;;;2.88;1.90;;;;;;;18.62;94.67;100274.97;20808010;28;20070;-76
2022/06/24 10:26:19;;;;;;;2.20;2.00;;;;;;;18.61;94.52;100300.25;20848192;28;20067;-77
2022/06/24 10:36:30;;;;;;;2.10;1.77;;;;;;;18.62;94.70;100314.56;20836146;28;20044;-77
2022/06/24 10:46:32;;;;;;;2.92;2.13;;;;;;;18.62;94.44;100333.41;20853128;28;20501;-76
2022/06/24 10:56:50;;;;;;;2.83;1.83;;;;;;;18.63;95.72;100353.97;20854657;28;20063;-78
2022/06/24 11:07:13;;;;;;;2.00;1.50;;;;;;;18.67;96.25;100347.28;20789846;28;20164;-76
2022/06/24 11:17:14;;;;;;;2.08;1.42;;;;;;;18.63;97.17;100351.28;20808807;28;20103;-76
2022/06/24 11:27:16;;;;;;;1.88;1.50;;;;;;;18.70;98.10;100344.28;20867223;28;20049;-76
2022/06/24 11:37:22;;;;;;;2.97;1.40;;;;;;;18.67;98.07;100340.06;20847779;28;20041;-76
2022/06/24 11:47:31;;;;;;;2.03;1.52;;;;;;;18.65;98.52;100344.75;20791742;28;20386;-76
2022/06/24 11:57:33;;;;;;;2.17;1.73;;;;;;;18.74;98.57;100363.69;20852987;28;20390;-75
2022/06/24 12:07:35;;;;;;;1.52;1.30;;;;;;;18.75;98.70;100360.00;20816973;28;20065;-76
2022/06/24 12:17:49;;;;;;;2.28;1.60;;;;;;;18.76;99.03;100345.50;20769353;28;20045;-76
2022/06/24 12:27:51;;;;;;;2.95;1.70;;;;;;;18.76;99.38;100340.94;20772379;28;20052;-76
2022/06/24 12:37:53;;;;;;;2.20;1.40;;;;;;;18.78;99.42;100343.50;20780678;28;20152;-76
2022/06/24 12:58:14;;;;;;;1.95;1.77;;;;;;;18.68;100.00;100339.03;20781353;28;20506;-76
2022/06/24 13:08:16;;;;;;;2.05;1.52;;;;;;;18.68;100.00;100332.78;20762050;28;21531;-77
2022/06/24 13:18:18;;;;;;;2.15;1.75;;;;;;;18.82;100.00;100350.28;20782812;28;20087;-77
2022/06/24 13:28:19;;;;;;;2.22;1.70;;;;;;;18.69;100.00;100335.34;20808216;28;20049;-76
2022/06/24 13:38:22;;;;;;;2.00;1.80;;;;;;;18.84;100.00;100332.09;20762456;28;20514;-77
2022/06/24 13:48:24;;;;;;;2.13;1.88;;;;;;;18.84;100.00;100316.75;20788460;28;20154;-76
2022/06/24 13:58:26;;;;;;;2.40;2.20;;;;;;;18.84;100.00;100321.28;20780889;28;20522;-76
2022/06/24 14:08:27;;;;;;;3.13;2.20;;;;;;;18.86;100.00;100331.94;20764806;28;20504;-76
2022/06/24 14:18:29;;;;;;;3.35;2.42;;;;;;;18.85;100.00;100341.88;20785594;28;20053;-76
2022/06/24 14:28:30;;;;;;;3.38;2.40;;;;;;;18.86;100.00;100337.34;20831331;28;20059;-76
2022/06/24 14:48:52;;;;;;;2.70;1.90;;;;;;;18.87;100.00;100339.88;20819515;28;20523;-77
2022/06/24 14:58:59;;;;;;;3.55;1.92;;;;;;;18.87;100.00;100320.97;20809087;28;20083;-77
2022/06/24 15:09:02;;;;;;;2.67;2.03;;;;;;;18.88;100.00;100321.84;20824395;28;20076;-77
2022/06/24 15:19:03;;;;;;;5.57;2.85;;;;;;;18.87;100.00;100322.84;20774053;28;20053;-77
2022/06/24 15:29:05;;;;;;;4.10;2.30;;;;;;;18.79;100.00;100296.66;20828572;28;20468;-77
2022/06/24 15:39:06;;;;;;;4.43;2.75;;;;;;;18.77;100.00;100296.78;20803985;28;20049;-77
2022/06/24 15:49:08;;;;;;;8.80;3.22;;;;;;;18.89;100.00;100321.66;20841034;28;20098;-77
2022/06/24 15:59:10;;;;;;;6.82;3.90;;;;;;;18.89;100.00;100324.38;20801774;28;20061;-77
2022/06/24 16:09:11;;;;;;;6.20;3.55;;;;;;;18.90;100.00;100300.97;20768975;28;20068;-77
2022/06/24 16:19:13;;;;;;;5.72;3.60;;;;;;;18.91;100.00;100295.38;20769368;28;20049;-77
2022/06/24 16:29:14;;;;;;;4.72;3.33;;;;;;;18.92;100.00;100304.34;20763838;28;20061;-77
2022/06/24 16:39:16;;;;;;;5.05;3.67;;;;;;;18.91;100.00;100291.84;20828748;28;20060;-77
2022/06/24 16:49:17;;;;;;;4.60;3.58;;;;;;;18.90;100.00;100299.09;20784484;28;20053;-77
2022/06/24 16:59:19;;;;;;;4.28;3.83;;;;;;;18.89;100.00;100313.59;20803817;28;20056;-76
2022/06/24 17:09:23;;;;;;;4.57;3.80;;;;;;;18.89;100.00;100321.66;20780186;28;20053;-76
2022/06/24 17:19:25;;;;;;;5.03;3.97;;;;;;;18.90;100.00;100350.34;20812815;28;20041;-76
2022/06/24 17:29:27;;;;;;;5.72;3.70;;;;;;;18.90;100.00;100357.59;20839900;28;20517;-76
2022/06/24 17:39:28;;;;;;;7.13;4.40;;;;;;;18.73;100.00;100337.72;20794643;28;20056;-76
2022/06/24 17:49:30;;;;;;;5.47;4.32;;;;;;;18.89;100.00;100361.28;20782493;28;20037;-75
2022/06/24 17:59:32;;;;;;;5.57;5.00;;;;;;;18.88;100.00;100360.44;20791640;28;20069;-76
2022/06/24 18:09:33;;;;;;;4.93;4.43;;;;;;;18.80;100.00;100342.34;20803338;28;20447;-76
2022/06/24 18:19:35;;;;;;;5.20;4.32;;;;;;;18.84;100.00;100375.22;20804228;28;20046;-76
2022/06/24 18:29:36;;;;;;;6.07;4.97;;;;;;;18.84;100.00;100388.72;20811420;28;20046;-76
2022/06/24 18:39:38;;;;;;;5.47;4.75;;;;;;;18.82;100.00;100388.91;20811346;28;20045;-76
2022/06/24 18:49:40;;;;;;;4.22;3.83;;;;;;;18.82;100.00;100393.41;20814464;28;20049;-76
2022/06/24 18:59:41;;;;;;;5.07;4.57;;;;;;;18.62;100.00;100363.94;20807998;28;20494;-77
2022/06/24 19:09:43;;;;;;;6.85;4.80;;;;;;;18.81;100.00;100402.50;20808742;28;20493;-76
2022/06/24 19:19:45;;;;;;;5.38;4.80;;;;;;;18.81;100.00;100424.09;20806459;28;20107;-76
2022/06/24 19:29:46;;;;;;;6.13;4.93;;;;;;;18.73;100.00;100437.50;20807775;28;20451;-77
2022/06/24 19:39:48;;;;;;;5.55;4.80;;;;;;;18.80;100.00;100474.50;20805989;28;20054;-76
2022/06/24 19:49:50;;;;;;;5.30;4.80;;;;;;;18.79;100.00;100475.50;20804999;28;20049;-76
2022/06/24 19:59:51;;;;;;;5.25;4.75;;;;;;;18.71;100.00;100467.31;20805063;28;20096;-76
2022/06/24 20:09:53;;;;;;;5.25;4.75;;;;;;;18.79;100.00;100475.50;20802154;28;20056;-76
2022/06/24 20:19:55;;;;;;;5.07;4.47;;;;;;;18.75;100.00;100465.16;20803006;28;20045;-77
2022/06/24 20:29:56;;;;;;;5.88;4.80;;;;;;;18.79;100.00;100480.03;20784784;28;20114;-76
2022/06/24 20:39:58;;;;;;;5.00;4.57;;;;;;;18.78;100.00;100489.13;20799456;28;20033;-77
2022/06/24 20:50:00;;;;;;;4.75;4.25;;;;;;;18.78;100.00;100505.31;20792371;28;20049;-77
2022/06/24 21:00:02;;;;;;;5.00;4.60;;;;;;;18.78;100.00;100513.38;20800995;28;20556;-77
2022/06/24 21:10:05;;;;;;;4.65;4.20;;;;;;;18.78;100.00;100526.88;20792759;28;20054;-77
2022/06/24 21:20:07;;;;;;;4.55;4.03;;;;;;;18.75;100.00;100519.91;20766297;28;20049;-76
2022/06/24 21:30:10;;;;;;;4.68;4.20;;;;;;;18.78;100.00;100540.34;20798618;28;20049;-76
2022/06/24 21:40:11;;;;;;;4.70;4.30;;;;;;;18.78;100.00;100537.66;20829728;28;20091;-76
2022/06/24 21:50:13;;;;;;;4.38;3.97;;;;;;;18.78;100.00;100518.78;20814202;28;20049;-76
2022/06/24 22:00:15;;;;;;;4.93;4.00;;;;;;;18.77;100.00;100530.56;20894435;28;20045;-76
2022/06/24 22:10:18;;;;;;;4.07;3.70;;;;;;;18.77;100.00;100512.53;20894468;28;20428;-76
2022/06/24 22:20:20;;;;;;;4.50;4.10;;;;;;;18.78;100.00;100518.78;20894459;28;20405;-77
2022/06/24 22:30:22;;;;;;;3.95;3.65;;;;;;;18.78;100.00;100532.28;20893987;28;20064;-76
2022/06/24 22:40:24;;;;;;;4.00;3.70;;;;;;;18.76;100.00;100527.00;20893631;28;20378;-77
2022/06/24 22:50:25;;;;;;;4.13;3.72;;;;;;;18.76;100.00;100524.31;20871594;28;20048;-77
2022/06/24 23:00:27;;;;;;;3.85;3.45;;;;;;;18.77;100.00;100519.78;20872924;28;20045;-77
2022/06/24 23:10:29;;;;;;;4.70;3.40;;;;;;;18.76;100.00;100535.09;20873702;28;20040;-77
2022/06/24 23:20:30;;;;;;;3.58;3.28;;;;;;;18.76;100.00;100539.66;20890104;28;20049;-76
2022/06/24 23:30:33;;;;;;;3.28;2.97;;;;;;;18.74;100.00;100531.72;20887887;28;20409;-77
2022/06/24 23:40:50;;;;;;;3.20;2.90;;;;;;;18.76;100.00;100534.28;20888678;28;20548;-77
